createdAt,value
2023-04-08T00:02:17.633Z,101594.59
2023-04-08T00:05:04.959Z,101600.69
2023-04-08T00:07:51.775Z,101602.56
2023-04-08T00:10:38.601Z,101602.47
2023-04-08T00:13:26.964Z,101608.66
2023-04-08T00:16:13.762Z,101605.16
2023-04-08T00:19:00.498Z,101605.16
2023-04-08T00:21:47.712Z,101610.50
2023-04-08T00:24:34.546Z,101614.97
2023-04-08T00:27:21.200Z,101610.63
2023-04-08T00:30:10.252Z,101605.34
2023-04-08T00:32:57.575Z,101605.34
2023-04-08T00:35:44.104Z,101600.84
2023-04-08T00:38:31.026Z,101606.94
2023-04-08T00:41:17.745Z,101606.94
2023-04-08T00:44:04.756Z,101614.09
2023-04-08T00:46:52.917Z,101612.19
2023-04-08T00:49:39.728Z,101607.84
2023-04-08T00:52:26.764Z,101608.78
2023-04-08T00:55:13.467Z,101614.06
2023-04-08T00:58:00.452Z,101618.41
2023-04-08T01:00:55.802Z,101617.41
2023-04-08T01:03:58.266Z,101621.78
2023-04-08T01:06:50.788Z,101627.81
2023-04-08T01:09:40.427Z,101631.50
2023-04-08T01:12:28.680Z,101629.75
2023-04-08T01:15:17.090Z,101633.44
2023-04-08T01:18:08.449Z,101627.19
2023-04-08T01:20:57.606Z,101630.66
2023-04-08T01:24:00.734Z,101628.06
2023-04-08T01:26:49.070Z,101626.28
2023-04-08T01:29:36.556Z,101620.13
2023-04-08T01:32:28.323Z,101621.94
2023-04-08T01:35:17.317Z,101615.78
2023-04-08T01:38:06.313Z,101626.34
2023-04-08T01:40:54.458Z,101623.72
2023-04-08T01:43:44.920Z,101624.59
2023-04-08T01:46:33.273Z,101623.69
2023-04-08T01:49:20.670Z,101631.59
2023-04-08T01:52:10.479Z,101634.25
2023-04-08T01:54:58.099Z,101632.56
2023-04-08T01:57:48.954Z,101635.22
2023-04-08T02:00:38.431Z,101633.38
2023-04-08T02:03:26.915Z,101635.22
2023-04-08T02:06:14.420Z,101610.84
2023-04-08T02:09:02.146Z,101653.75
2023-04-08T02:11:48.834Z,101644.13
2023-04-08T02:14:35.754Z,101646.75
2023-04-08T02:17:35.890Z,101652.88
2023-04-08T02:20:25.519Z,101652.81
2023-04-08T02:23:16.712Z,101654.66
2023-04-08T02:26:05.981Z,101658.13
2023-04-08T02:28:55.429Z,101659.03
2023-04-08T02:31:43.460Z,101656.34
2023-04-08T02:34:31.910Z,101657.19
2023-04-08T02:37:21.079Z,101660.72
2023-04-08T02:40:26.502Z,101662.41
2023-04-08T02:43:13.191Z,101657.09
2023-04-08T02:46:03.590Z,101663.31
2023-04-08T02:48:50.774Z,101672.13
2023-04-08T02:51:38.592Z,101672.22
2023-04-08T02:54:25.855Z,101675.63
2023-04-08T02:57:13.126Z,101675.56
2023-04-08T02:59:59.562Z,101673.88
2023-04-08T03:02:46.546Z,101684.38
2023-04-08T03:05:33.662Z,101670.34
2023-04-08T03:08:21.868Z,101674.75
2023-04-08T03:11:08.611Z,101684.28
2023-04-08T03:13:55.537Z,101677.38
2023-04-08T03:16:42.271Z,101681.72
2023-04-08T03:19:28.971Z,101696.66
2023-04-08T03:22:15.738Z,101694.78
2023-04-08T03:25:04.491Z,101672.13
2023-04-08T03:27:51.155Z,101701.06
2023-04-08T03:30:38.215Z,101705.34
2023-04-08T03:33:25.037Z,101697.59
2023-04-08T03:36:12.315Z,101699.25
2023-04-08T03:38:59.253Z,101694.97
2023-04-08T03:41:47.409Z,101689.72
2023-04-08T03:44:34.419Z,101692.19
2023-04-08T03:47:21.009Z,101694.91
2023-04-08T03:50:08.930Z,101700.09
2023-04-08T03:52:55.881Z,101698.50
2023-04-08T03:55:42.598Z,101718.66
2023-04-08T03:58:30.714Z,101716.09
2023-04-08T04:01:17.783Z,101719.59
2023-04-08T04:04:04.787Z,101722.44
2023-04-08T04:06:51.471Z,101717.88
2023-04-08T04:09:38.293Z,101721.56
2023-04-08T04:12:25.339Z,101722.25
2023-04-08T04:15:13.639Z,101728.50
2023-04-08T04:18:00.428Z,101737.22
2023-04-08T04:20:47.461Z,101727.56
2023-04-08T04:23:34.312Z,101736.38
2023-04-08T04:26:21.088Z,101738.94
2023-04-08T04:29:08.099Z,101735.50
2023-04-08T04:31:56.126Z,101738.94
2023-04-08T04:34:44.516Z,101741.56
2023-04-08T04:37:31.434Z,101736.31
2023-04-08T04:40:18.076Z,101737.94
2023-04-08T04:43:04.801Z,101752.00
2023-04-08T04:45:51.733Z,101751.25
2023-04-08T04:48:39.734Z,101756.41
2023-04-08T04:51:27.191Z,101763.44
2023-04-08T04:54:13.758Z,101762.59
2023-04-08T04:57:01.124Z,101765.25
2023-04-08T04:59:47.903Z,101769.69
2023-04-08T05:02:34.924Z,101761.69
2023-04-08T05:05:23.432Z,101764.22
2023-04-08T05:08:10.359Z,101760.69
2023-04-08T05:10:57.057Z,101768.56
2023-04-08T05:13:43.887Z,101769.47
2023-04-08T05:16:30.994Z,101776.47
2023-04-08T05:19:17.659Z,101775.63
2023-04-08T05:22:05.711Z,101794.41
2023-04-08T05:24:52.633Z,101794.34
2023-04-08T05:27:40.575Z,101799.47
2023-04-08T05:30:27.264Z,101797.75
2023-04-08T05:33:13.954Z,101790.66
2023-04-08T05:36:00.794Z,101793.25
2023-04-08T05:38:49.166Z,101800.47
2023-04-08T05:41:36.168Z,101798.69
2023-04-08T05:44:23.053Z,101809.25
2023-04-08T05:47:09.835Z,101809.03
2023-04-08T05:49:56.900Z,101816.25
2023-04-08T05:52:44.921Z,101822.31
2023-04-08T05:55:33.004Z,101816.06
2023-04-08T05:58:19.735Z,101829.25
2023-04-08T06:01:07.505Z,101831.97
2023-04-08T06:03:56.368Z,101823.84
2023-04-08T06:06:43.092Z,101833.47
2023-04-08T06:09:29.893Z,101828.22
2023-04-08T06:12:18.152Z,101836.16
2023-04-08T06:15:05.328Z,101831.72
2023-04-08T06:17:51.948Z,101836.97
2023-04-08T06:20:38.811Z,101836.81
2023-04-08T06:23:25.806Z,101838.63
2023-04-08T06:26:13.394Z,101843.09
2023-04-08T06:29:02.064Z,101844.69
2023-04-08T06:31:48.769Z,101842.22
2023-04-08T06:34:35.722Z,101843.13
2023-04-08T06:37:22.476Z,101843.91
2023-04-08T06:40:10.325Z,101838.56
2023-04-08T06:42:57.235Z,101843.75
2023-04-08T06:45:57.073Z,101852.44
2023-04-08T06:48:43.830Z,101863.91
2023-04-08T06:51:31.544Z,101857.66
2023-04-08T06:54:18.225Z,101871.97
2023-04-08T06:57:05.393Z,101877.03
2023-04-08T06:59:53.584Z,101874.22
2023-04-08T07:02:42.090Z,101874.19
2023-04-08T07:05:28.960Z,101877.66
2023-04-08T07:08:15.748Z,101891.88
2023-04-08T07:11:02.630Z,101900.59
2023-04-08T07:13:49.163Z,101900.91
2023-04-08T07:16:36.073Z,101902.47
2023-04-08T07:19:24.570Z,101902.50
2023-04-08T07:22:11.538Z,101906.88
2023-04-08T07:24:58.118Z,101903.28
2023-04-08T07:27:45.009Z,101901.41
2023-04-08T07:30:31.977Z,101903.88
2023-04-08T07:33:18.620Z,101908.88
2023-04-08T07:36:07.336Z,101908.66
2023-04-08T07:38:53.870Z,101910.41
2023-04-08T07:41:40.735Z,101908.56
2023-04-08T07:44:27.567Z,101921.16
2023-04-08T07:47:14.447Z,101913.97
2023-04-08T07:50:01.274Z,101909.31
2023-04-08T07:52:49.349Z,101921.53
2023-04-08T07:55:36.324Z,101926.88
2023-04-08T07:58:23.017Z,101925.00
2023-04-08T08:01:18.047Z,101928.47
2023-04-08T08:04:05.674Z,101934.25
2023-04-08T08:06:52.916Z,101930.69
2023-04-08T08:09:40.956Z,101935.13
2023-04-08T08:12:27.576Z,101942.19
2023-04-08T08:15:14.973Z,101939.38
2023-04-08T08:18:01.596Z,101942.63
2023-04-08T08:20:48.396Z,101936.31
2023-04-08T08:23:35.227Z,101945.59
2023-04-08T08:26:23.548Z,101940.91
2023-04-08T08:29:10.334Z,101949.00
2023-04-08T08:31:56.938Z,101947.19
2023-04-08T08:34:43.808Z,101956.06
2023-04-08T08:37:30.774Z,101951.41
2023-04-08T08:40:17.916Z,101952.16
2023-04-08T08:43:05.931Z,101955.44
2023-04-08T08:45:52.953Z,101958.53
2023-04-08T08:48:40.832Z,101958.50
2023-04-08T08:51:29.044Z,101965.28
2023-04-08T08:54:17.025Z,101976.00
2023-04-08T08:57:03.563Z,101968.69
2023-04-08T08:59:51.636Z,101974.53
2023-04-08T09:02:38.554Z,101975.47
2023-04-08T09:05:25.240Z,101975.19
2023-04-08T09:08:24.717Z,101981.97
2023-04-08T09:11:16.401Z,101982.25
2023-04-08T09:14:03.219Z,101985.00
2023-04-08T09:16:52.380Z,101983.78
2023-04-08T09:19:39.035Z,101982.72
2023-04-08T09:22:26.220Z,101994.19
2023-04-08T09:25:24.326Z,101995.56
2023-04-08T09:28:21.534Z,102001.56
2023-04-08T09:31:23.312Z,101919.78
2023-04-08T09:34:14.659Z,101996.31
2023-04-08T09:37:01.569Z,102009.22
2023-04-08T09:39:48.944Z,102006.16
2023-04-08T09:42:40.873Z,102007.22
2023-04-08T09:45:28.475Z,102003.28
2023-04-08T09:48:24.381Z,102005.59
2023-04-08T09:51:17.452Z,101995.13
2023-04-08T09:54:07.915Z,102005.56
2023-04-08T09:57:03.643Z,102009.69
2023-04-08T09:59:59.360Z,102001.44
2023-04-08T10:02:56.682Z,102007.72
2023-04-08T10:05:45.085Z,102007.38
2023-04-08T10:08:33.932Z,102014.34
2023-04-08T10:11:21.366Z,102010.69
2023-04-08T10:14:11.910Z,102008.03
2023-04-08T10:17:25.663Z,102012.19
2023-04-08T10:20:43.046Z,102015.81
2023-04-08T10:23:59.937Z,102015.69
2023-04-08T10:26:48.906Z,102014.22
2023-04-08T10:29:35.753Z,102005.63
2023-04-08T10:32:41.897Z,101999.09
2023-04-08T10:35:30.492Z,102006.13
2023-04-08T10:38:18.027Z,102013.16
2023-04-08T10:41:06.371Z,102012.69
2023-04-08T10:43:53.245Z,102018.16
2023-04-08T10:46:40.102Z,102000.22
2023-04-08T10:49:34.689Z,101974.16
2023-04-08T10:52:21.918Z,102000.75
2023-04-08T10:55:09.203Z,102003.13
2023-04-08T10:57:58.287Z,101968.16
2023-04-08T11:00:45.283Z,101998.69
2023-04-08T11:03:33.998Z,101996.19
2023-04-08T11:06:20.840Z,101996.25
2023-04-08T11:09:07.676Z,102006.09
2023-04-08T11:11:55.091Z,101997.13
2023-04-08T11:14:44.114Z,101995.47
2023-04-08T11:17:31.353Z,102001.34
2023-04-08T11:20:18.545Z,101993.84
2023-04-08T11:23:05.122Z,101993.09
2023-04-08T11:25:56.652Z,101999.31
2023-04-08T11:28:44.719Z,102007.63
2023-04-08T11:31:33.885Z,101997.59
2023-04-08T11:34:25.018Z,101999.34
2023-04-08T11:37:11.750Z,101995.31
2023-04-08T11:39:58.455Z,102002.88
2023-04-08T11:42:47.026Z,102001.16
2023-04-08T11:45:39.760Z,102004.31
2023-04-08T11:48:28.932Z,102006.75
2023-04-08T11:51:16.198Z,102010.13
2023-04-08T11:54:06.252Z,102005.22
2023-04-08T11:56:53.653Z,102001.63
2023-04-08T11:59:40.298Z,102000.22
2023-04-08T12:02:27.484Z,102007.47
2023-04-08T12:05:16.069Z,102003.63
2023-04-08T12:08:02.608Z,102005.13
2023-04-08T12:10:49.457Z,102005.78
2023-04-08T12:13:36.130Z,102001.25
2023-04-08T12:16:22.971Z,101992.59
2023-04-08T12:19:09.836Z,101998.63
2023-04-08T12:21:57.859Z,102000.56
2023-04-08T12:24:44.679Z,101995.81
2023-04-08T12:27:33.536Z,101992.06
2023-04-08T12:30:20.438Z,101995.75
2023-04-08T12:33:07.301Z,101991.06
2023-04-08T12:35:54.310Z,102000.31
2023-04-08T12:38:42.200Z,101998.09
2023-04-08T12:41:28.874Z,101993.88
2023-04-08T12:44:15.626Z,101994.53
2023-04-08T12:47:02.597Z,101993.59
2023-04-08T12:49:50.173Z,101994.34
2023-04-08T12:52:36.598Z,101996.22
2023-04-08T12:55:26.115Z,101983.16
2023-04-08T12:58:12.987Z,101990.88
2023-04-08T13:00:59.760Z,101981.06
2023-04-08T13:03:48.037Z,101986.84
2023-04-08T13:06:34.838Z,101981.31
2023-04-08T13:09:25.292Z,101975.06
2023-04-08T13:12:16.315Z,101977.50
2023-04-08T13:15:03.106Z,101969.38
2023-04-08T13:17:50.324Z,101977.66
2023-04-08T13:20:38.202Z,101965.41
2023-04-08T13:23:24.923Z,101965.59
2023-04-08T13:26:11.590Z,101971.06
2023-04-08T13:29:00.206Z,101953.63
2023-04-08T13:31:47.149Z,101960.25
2023-04-08T13:34:33.548Z,101966.91
2023-04-08T13:37:20.238Z,101958.03
2023-04-08T13:40:08.920Z,101956.50
2023-04-08T13:42:55.961Z,101954.31
2023-04-08T13:45:44.741Z,101953.28
2023-04-08T13:48:31.507Z,101963.59
2023-04-08T13:51:18.123Z,101957.69
2023-04-08T13:54:05.237Z,101962.09
2023-04-08T13:56:51.788Z,101950.69
2023-04-08T13:59:38.733Z,101955.38
2023-04-08T14:02:26.968Z,101959.06
2023-04-08T14:05:13.867Z,101959.22
2023-04-08T14:08:00.819Z,101959.88
2023-04-08T14:10:47.868Z,101966.38
2023-04-08T14:13:34.425Z,101965.47
2023-04-08T14:16:21.481Z,101959.41
2023-04-08T14:19:09.521Z,101954.38
2023-04-08T14:21:56.427Z,101952.31
2023-04-08T14:24:44.041Z,101949.31
2023-04-08T14:27:30.940Z,101950.34
2023-04-08T14:30:17.725Z,101945.13
2023-04-08T14:33:05.535Z,101948.56
2023-04-08T14:35:55.308Z,101953.16
2023-04-08T14:38:41.929Z,101949.25
2023-04-08T14:41:29.401Z,101949.81
2023-04-08T14:44:16.185Z,101947.34
2023-04-08T14:47:03.174Z,101951.97
2023-04-08T14:49:49.681Z,101948.94
2023-04-08T14:52:37.767Z,101946.84
2023-04-08T14:55:25.872Z,101953.09
2023-04-08T14:58:12.872Z,101945.50
2023-04-08T15:00:59.454Z,101873.72
2023-04-08T15:03:46.489Z,101944.28
2023-04-08T15:06:33.012Z,101941.63
2023-04-08T15:09:21.039Z,101940.47
2023-04-08T15:12:07.767Z,101936.75
2023-04-08T15:14:54.599Z,101938.84
2023-04-08T15:17:41.393Z,101941.88
2023-04-08T15:20:28.128Z,101939.25
2023-04-08T15:23:15.171Z,101935.28
2023-04-08T15:26:02.988Z,101943.19
2023-04-08T15:28:49.784Z,101943.38
2023-04-08T15:31:36.653Z,101944.91
2023-04-08T15:34:24.007Z,101948.59
2023-04-08T15:37:11.067Z,101947.72
2023-04-08T15:39:57.636Z,101945.13
2023-04-08T15:42:46.174Z,101948.88
2023-04-08T15:45:33.618Z,101954.16
2023-04-08T15:48:20.694Z,101950.94
2023-04-08T15:51:12.682Z,101949.38
2023-04-08T15:53:59.235Z,101949.88
2023-04-08T15:56:46.703Z,101950.03
2023-04-08T15:59:34.556Z,101947.78
2023-04-08T16:02:21.442Z,101949.78
2023-04-08T16:05:09.254Z,101948.81
2023-04-08T16:07:55.591Z,101953.00
2023-04-08T16:10:42.389Z,101955.75
2023-04-08T16:13:30.080Z,101957.47
2023-04-08T16:16:18.117Z,101959.97
2023-04-08T16:19:05.016Z,101959.81
2023-04-08T16:21:51.776Z,101958.63
2023-04-08T16:24:38.635Z,101967.31
2023-04-08T16:27:25.426Z,101956.19
2023-04-08T16:30:13.056Z,101888.25
2023-04-08T16:33:01.527Z,101966.09
2023-04-08T16:35:49.343Z,101966.75
2023-04-08T16:38:35.928Z,101968.34
2023-04-08T16:41:23.104Z,101974.34
2023-04-08T16:44:09.527Z,101974.69
2023-04-08T16:46:56.509Z,101981.06
2023-04-08T16:49:44.355Z,101980.19
2023-04-08T16:52:31.226Z,101988.16
2023-04-08T16:55:18.267Z,101990.56
2023-04-08T16:58:05.600Z,101989.41
2023-04-08T17:00:52.182Z,101993.72
2023-04-08T17:03:39.124Z,101995.16
2023-04-08T17:06:27.555Z,101997.84
2023-04-08T17:12:01.379Z,102017.28
2023-04-08T17:14:48.192Z,102008.19
2023-04-08T17:17:35.035Z,102019.63
2023-04-08T17:20:22.215Z,102008.94
2023-04-08T17:23:10.266Z,102020.53
2023-04-08T17:25:57.185Z,102026.16
2023-04-08T17:28:47.260Z,102023.66
2023-04-08T17:31:34.087Z,102031.06
2023-04-08T17:34:20.528Z,102031.19
2023-04-08T17:37:07.761Z,102041.22
2023-04-08T17:39:55.756Z,102042.19
2023-04-08T17:42:42.213Z,102048.84
2023-04-08T17:45:29.017Z,102052.81
2023-04-08T17:48:15.772Z,102048.72
2023-04-08T17:51:02.809Z,102064.88
2023-04-08T17:53:49.365Z,102076.88
2023-04-08T17:56:39.367Z,102081.44
2023-04-08T17:59:26.502Z,102090.50
2023-04-08T18:02:19.351Z,102093.91
2023-04-08T18:05:07.913Z,102106.19
2023-04-08T18:07:54.605Z,102109.09
2023-04-08T18:10:43.532Z,102118.19
2023-04-08T18:13:31.689Z,102126.94
2023-04-08T18:16:19.289Z,102132.66
2023-04-08T18:19:05.838Z,102140.97
2023-04-08T18:21:52.417Z,102145.38
2023-04-08T18:24:42.880Z,102155.19
2023-04-08T18:27:29.742Z,102161.56
2023-04-08T18:30:17.990Z,102168.66
2023-04-08T18:33:05.017Z,102158.97
2023-04-08T18:35:52.735Z,102166.50
2023-04-08T18:38:40.941Z,102167.44
2023-04-08T18:41:28.052Z,102184.59
2023-04-08T18:44:14.603Z,102190.81
2023-04-08T18:47:03.263Z,102190.13
2023-04-08T18:49:50.039Z,102190.16
2023-04-08T18:52:37.565Z,102186.97
2023-04-08T18:55:24.295Z,102202.22
2023-04-08T18:58:11.361Z,102203.09
2023-04-08T19:00:57.956Z,102211.13
2023-04-08T19:03:46.218Z,102213.78
2023-04-08T19:06:35.890Z,102211.91
2023-04-08T19:09:30.088Z,102212.09
2023-04-08T19:12:16.632Z,102206.75
2023-04-08T19:15:04.439Z,102215.63
2023-04-08T19:17:51.635Z,102218.53
2023-04-08T19:20:39.757Z,102209.59
2023-04-08T19:23:26.500Z,102218.47
2023-04-08T19:26:15.345Z,102213.22
2023-04-08T19:29:02.249Z,102215.28
2023-04-08T19:31:48.855Z,102210.94
2023-04-08T19:34:38.403Z,102210.97
2023-04-08T19:37:27.045Z,102210.63
2023-04-08T19:40:13.752Z,102209.13
2023-04-08T19:43:00.413Z,102210.91
2023-04-08T19:45:47.347Z,102213.47
2023-04-08T19:48:34.873Z,102216.34
2023-04-08T19:51:23.091Z,102219.00
2023-04-08T19:54:10.934Z,102216.38
2023-04-08T19:56:58.500Z,102215.28
2023-04-08T19:59:45.053Z,102221.56
2023-04-08T20:02:32.983Z,102217.03
2023-04-08T20:05:20.699Z,102218.78
2023-04-08T20:08:07.669Z,102220.50
2023-04-08T20:10:55.686Z,102225.09
2023-04-08T20:13:42.246Z,102218.25
2023-04-08T20:16:29.290Z,102223.69
2023-04-08T20:19:16.090Z,102228.06
2023-04-08T20:22:03.242Z,102224.56
2023-04-08T20:24:50.178Z,102229.91
2023-04-08T20:27:38.593Z,102221.88
2023-04-08T20:30:25.784Z,102227.91
2023-04-08T20:33:16.251Z,102233.41
2023-04-08T20:36:03.472Z,102231.69
2023-04-08T20:38:53.905Z,102231.69
2023-04-08T20:41:41.191Z,102234.28
2023-04-08T20:44:29.982Z,102231.72
2023-04-08T20:47:16.957Z,102230.81
2023-04-08T20:50:03.905Z,102229.19
2023-04-08T20:52:50.349Z,102232.69
2023-04-08T20:55:37.212Z,102231.59
2023-04-08T20:58:24.138Z,102230.09
2023-04-08T21:01:12.245Z,102230.19
2023-04-08T21:03:59.742Z,102225.78
2023-04-08T21:06:49.314Z,102225.91
2023-04-08T21:09:36.662Z,102225.03
2023-04-08T21:12:23.385Z,102238.31
2023-04-08T21:15:10.898Z,102230.44
2023-04-08T21:17:58.895Z,102237.59
2023-04-08T21:20:46.676Z,102232.31
2023-04-08T21:23:33.496Z,102236.63
2023-04-08T21:26:21.407Z,102240.16
2023-04-08T21:29:07.914Z,102243.72
2023-04-08T21:31:54.773Z,102239.44
2023-04-08T21:34:47.679Z,102229.69
2023-04-08T21:37:34.932Z,102234.19
2023-04-08T21:40:21.445Z,102231.63
2023-04-08T21:43:08.361Z,102228.19
2023-04-08T21:46:00.599Z,102229.13
2023-04-08T21:48:47.013Z,102234.56
2023-04-08T21:51:35.958Z,102238.13
2023-04-08T21:54:22.573Z,102231.94
2023-04-08T21:57:09.329Z,102231.97
2023-04-08T21:59:59.740Z,102238.16
2023-04-08T22:02:47.372Z,102233.75
2023-04-08T22:05:34.492Z,102181.88
2023-04-08T22:08:23.405Z,102229.38
2023-04-08T22:11:09.918Z,102223.31
2023-04-08T22:13:58.152Z,102220.75
2023-04-08T22:16:44.842Z,102219.91
2023-04-08T22:19:31.511Z,102197.94
2023-04-08T22:22:18.038Z,102216.47
2023-04-08T22:25:07.601Z,102222.72
2023-04-08T22:27:54.553Z,102214.84
2023-04-08T22:30:41.348Z,102204.31
2023-04-08T22:33:28.834Z,102215.81
2023-04-08T22:36:15.624Z,102217.59
2023-04-08T22:39:02.375Z,102214.97
2023-04-08T22:41:50.598Z,102210.59
2023-04-08T22:44:37.519Z,102213.22
2023-04-08T22:47:24.545Z,102210.63
2023-04-08T22:50:11.857Z,102207.13
2023-04-08T22:52:58.451Z,102210.63
2023-04-08T22:55:45.181Z,102200.94
2023-04-08T22:58:33.479Z,102204.44
2023-04-08T23:01:22.267Z,102200.91
2023-04-08T23:04:09.083Z,102196.47
2023-04-08T23:06:55.792Z,102206.19
2023-04-08T23:09:42.882Z,102206.16
2023-04-08T23:12:29.428Z,102211.44
2023-04-08T23:15:17.561Z,102207.94
2023-04-08T23:18:04.034Z,102212.31
2023-04-08T23:20:54.526Z,102210.53
2023-04-08T23:23:40.993Z,102215.75
2023-04-08T23:26:27.609Z,102210.50
2023-04-08T23:29:14.408Z,102210.53
2023-04-08T23:32:02.502Z,102218.34
2023-04-08T23:34:49.175Z,102213.91
2023-04-08T23:37:35.910Z,102220.16
2023-04-08T23:40:22.824Z,102218.31
2023-04-08T23:43:09.691Z,102207.69
2023-04-08T23:45:56.552Z,102218.16
2023-04-08T23:48:44.735Z,102216.38
2023-04-08T23:51:32.096Z,102214.56
2023-04-08T23:54:18.603Z,102222.47
2023-04-08T23:57:05.509Z,102211.94
2023-04-08T23:59:52.111Z,102217.19
